Time;durP1;ratioP1;P1;durP2;ratioP2;P2;SDS_P1;SDS_P2;PMS_P1;PMS_P2;Temp;Humidity;BMP_temperature;BMP_pressure;BME280_temperature;BME280_humidity;BME280_pressure;Samples;Min_cycle;Max_cycle;Signal;HPM_P1;HPM_P2
2022/03/07 00:00:47;;;;;;;6.60;2.08;;;0.90;99.90;;;;;;4972517;28;20057;-71
2022/03/07 00:03:15;;;;;;;3.97;2.22;;;0.90;99.90;;;;;;4971881;28;20046;-71
2022/03/07 00:05:42;;;;;;;6.45;2.67;;;0.90;99.90;;;;;;4972553;28;20170;-72
2022/03/07 00:08:11;;;;;;;6.15;2.40;;;0.90;99.90;;;;;;4971533;28;20051;-71
2022/03/07 00:10:38;;;;;;;5.88;1.92;;;0.80;99.90;;;;;;4954569;28;20169;-71
2022/03/07 00:13:06;;;;;;;4.90;2.40;;;0.80;99.90;;;;;;4971715;28;20051;-71
2022/03/07 00:15:33;;;;;;;7.35;2.38;;;0.90;99.90;;;;;;4954224;28;20047;-72
2022/03/07 00:18:00;;;;;;;4.20;1.92;;;0.90;99.90;;;;;;4954003;28;20120;-72
2022/03/07 00:20:28;;;;;;;5.15;2.13;;;0.90;99.90;;;;;;4971422;28;20050;-71
2022/03/07 00:22:55;;;;;;;5.28;2.10;;;0.90;99.90;;;;;;4971349;28;20054;-70
2022/03/07 00:25:25;;;;;;;4.95;2.30;;;0.90;99.90;;;;;;4971944;28;20042;-71
2022/03/07 00:27:52;;;;;;;6.93;2.40;;;0.90;99.90;;;;;;4972257;28;20055;-72
2022/03/07 00:30:20;;;;;;;4.45;2.30;;;0.90;99.90;;;;;;4971373;28;20078;-72
2022/03/07 00:32:48;;;;;;;4.45;2.38;;;0.90;99.90;;;;;;4972228;28;20051;-72
2022/03/07 00:35:16;;;;;;;3.65;2.42;;;0.80;99.90;;;;;;4971981;28;20061;-72
2022/03/07 00:37:44;;;;;;;7.18;3.17;;;0.80;99.90;;;;;;4972093;28;20380;-72
2022/03/07 00:40:12;;;;;;;4.03;2.28;;;0.80;99.90;;;;;;4970671;28;20053;-72
2022/03/07 00:42:41;;;;;;;5.75;2.40;;;0.80;99.90;;;;;;4970263;28;20221;-71
2022/03/07 00:45:10;;;;;;;3.53;2.15;;;0.80;99.90;;;;;;4954456;28;20042;-71
2022/03/07 00:47:38;;;;;;;4.00;2.22;;;0.80;99.90;;;;;;4970626;28;20053;-71
2022/03/07 00:50:08;;;;;;;6.30;2.53;;;0.80;99.90;;;;;;4970567;28;20047;-71
2022/03/07 00:52:35;;;;;;;8.40;2.70;;;0.70;99.90;;;;;;4970270;28;20063;-72
2022/03/07 00:55:04;;;;;;;6.00;3.17;;;0.70;99.90;;;;;;4970837;28;20054;-72
2022/03/07 00:57:31;;;;;;;5.47;2.63;;;0.70;99.90;;;;;;4970516;28;20051;-72
2022/03/07 01:00:00;;;;;;;5.30;2.38;;;0.70;99.90;;;;;;4970095;28;20046;-71
2022/03/07 01:02:27;;;;;;;5.95;3.20;;;0.70;99.90;;;;;;4954360;28;20458;-71
2022/03/07 01:04:55;;;;;;;5.35;2.97;;;0.70;99.90;;;;;;4954306;28;20158;-71
2022/03/07 01:07:22;;;;;;;6.05;2.83;;;0.70;99.90;;;;;;4971750;28;20146;-70
2022/03/07 01:09:50;;;;;;;7.20;2.38;;;0.70;99.90;;;;;;4970122;28;20078;-71
2022/03/07 01:12:18;;;;;;;4.35;2.58;;;0.70;99.90;;;;;;4954567;28;20105;-71
2022/03/07 01:14:45;;;;;;;10.10;3.00;;;0.70;99.90;;;;;;4954100;28;20058;-71
2022/03/07 01:17:15;;;;;;;5.22;2.58;;;0.70;99.90;;;;;;4970731;28;20051;-71
2022/03/07 01:19:43;;;;;;;4.97;2.60;;;0.70;99.90;;;;;;4969084;28;20058;-71
2022/03/07 01:22:10;;;;;;;5.72;2.22;;;0.70;99.90;;;;;;4971411;28;20082;-72
2022/03/07 01:24:37;;;;;;;4.63;2.80;;;0.70;99.90;;;;;;4953981;28;20055;-72
2022/03/07 01:27:05;;;;;;;7.43;2.85;;;0.70;99.90;;;;;;4971895;28;20054;-72
2022/03/07 01:29:32;;;;;;;4.22;2.70;;;0.70;99.90;;;;;;4973728;28;20057;-72
2022/03/07 01:32:00;;;;;;;8.45;3.35;;;0.70;99.90;;;;;;4973725;28;20062;-72
2022/03/07 01:34:30;;;;;;;4.85;3.08;;;0.70;99.90;;;;;;4973266;28;20058;-72
2022/03/07 01:36:57;;;;;;;8.13;3.00;;;0.70;99.90;;;;;;4974845;28;20051;-72
2022/03/07 01:39:25;;;;;;;8.45;3.58;;;0.70;99.90;;;;;;4956301;28;20116;-72
2022/03/07 01:41:52;;;;;;;6.85;2.90;;;0.70;99.90;;;;;;4973598;28;20074;-72
2022/03/07 01:44:21;;;;;;;6.85;2.80;;;0.70;99.90;;;;;;4957297;28;20544;-72
2022/03/07 01:46:50;;;;;;;5.78;2.97;;;0.70;99.90;;;;;;4973329;28;20093;-71
2022/03/07 01:49:18;;;;;;;8.10;3.28;;;0.70;99.90;;;;;;4973299;28;20534;-72
2022/03/07 01:51:48;;;;;;;9.18;3.22;;;0.70;99.90;;;;;;4941372;28;20066;-71
2022/03/07 01:54:20;;;;;;;4.57;3.00;;;0.80;99.90;;;;;;4957023;28;20097;-71
2022/03/07 01:56:50;;;;;;;5.95;2.97;;;0.80;99.90;;;;;;4973314;28;20089;-71
2022/03/07 01:59:20;;;;;;;6.25;2.70;;;0.80;99.90;;;;;;4956904;28;20050;-71
2022/03/07 02:01:48;;;;;;;6.68;2.22;;;0.80;99.90;;;;;;4956636;28;20050;-71
2022/03/07 02:04:16;;;;;;;7.32;1.77;;;0.80;99.90;;;;;;4956872;28;20058;-71
2022/03/07 02:06:48;;;;;;;6.55;2.22;;;0.80;99.90;;;;;;4974645;28;20093;-71
2022/03/07 02:09:17;;;;;;;3.13;1.77;;;0.80;99.90;;;;;;4956542;28;20049;-71
2022/03/07 02:11:46;;;;;;;8.93;2.20;;;0.90;99.90;;;;;;4940970;28;20431;-71
2022/03/07 02:14:19;;;;;;;2.85;1.48;;;0.90;99.90;;;;;;4956065;28;20126;-72
2022/03/07 02:16:52;;;;;;;4.70;1.67;;;0.90;99.90;;;;;;4940863;28;20137;-71
2022/03/07 02:19:20;;;;;;;1.98;1.33;;;0.90;99.90;;;;;;4956290;28;20154;-71
2022/03/07 02:21:51;;;;;;;2.85;1.50;;;0.90;99.90;;;;;;4956532;28;20075;-71
2022/03/07 02:24:22;;;;;;;3.22;1.25;;;0.90;99.90;;;;;;4974020;28;20154;-71
2022/03/07 02:26:58;;;;;;;3.30;1.40;;;0.90;99.90;;;;;;4972810;28;20058;-71
2022/03/07 02:29:27;;;;;;;5.20;1.80;;;0.90;99.90;;;;;;4972673;28;20059;-71
2022/03/07 02:31:58;;;;;;;4.22;1.38;;;0.90;99.90;;;;;;4972615;28;20057;-71
2022/03/07 02:34:32;;;;;;;2.45;1.40;;;0.90;99.90;;;;;;4956131;28;20061;-73
2022/03/07 02:37:01;;;;;;;3.15;1.20;;;0.90;99.90;;;;;;4971939;28;20058;-71
2022/03/07 02:39:37;;;;;;;5.05;1.83;;;0.90;99.90;;;;;;4956183;28;20069;-71
2022/03/07 02:42:06;;;;;;;3.83;1.58;;;0.90;99.90;;;;;;4956090;28;20093;-71
2022/03/07 02:44:34;;;;;;;5.45;1.63;;;0.90;99.90;;;;;;4956105;28;20076;-71
2022/03/07 02:47:01;;;;;;;3.15;2.00;;;0.90;99.90;;;;;;4972548;28;20138;-72
2022/03/07 02:49:28;;;;;;;2.05;1.48;;;0.90;99.90;;;;;;4972175;28;20047;-72
2022/03/07 02:51:56;;;;;;;3.83;1.80;;;0.90;99.90;;;;;;4956211;28;20146;-71
2022/03/07 02:54:23;;;;;;;4.53;1.23;;;0.90;99.90;;;;;;4973577;28;20050;-72
2022/03/07 02:56:53;;;;;;;2.67;1.30;;;0.90;99.90;;;;;;4972967;28;20105;-72
2022/03/07 02:59:20;;;;;;;2.90;2.17;;;0.90;99.90;;;;;;4939952;28;20082;-72
2022/03/07 03:01:48;;;;;;;3.90;1.58;;;0.90;99.90;;;;;;4973225;28;20054;-72
2022/03/07 03:04:15;;;;;;;5.30;1.58;;;0.90;99.90;;;;;;4955578;28;20051;-72
2022/03/07 03:06:43;;;;;;;2.22;1.55;;;0.90;99.90;;;;;;4955696;28;20073;-72
2022/03/07 03:09:11;;;;;;;3.75;1.67;;;0.80;99.90;;;;;;4955989;28;20131;-72
2022/03/07 03:11:38;;;;;;;3.25;1.60;;;0.80;99.90;;;;;;4973958;28;20061;-72
2022/03/07 03:14:07;;;;;;;5.68;1.60;;;0.80;99.90;;;;;;4984658;28;20100;-72
2022/03/07 03:16:35;;;;;;;1.38;1.27;;;0.80;99.90;;;;;;4987481;28;20046;-73
2022/03/07 03:19:02;;;;;;;3.90;2.00;;;0.80;99.90;;;;;;4992377;28;20518;-72
2022/03/07 03:21:30;;;;;;;3.50;1.83;;;0.80;99.90;;;;;;4968716;28;20077;-72
2022/03/07 03:23:57;;;;;;;4.22;1.75;;;0.80;99.90;;;;;;4972855;28;20051;-72
2022/03/07 03:26:25;;;;;;;3.58;1.75;;;0.80;99.90;;;;;;4972970;28;20089;-72
2022/03/07 03:28:52;;;;;;;2.88;1.42;;;0.80;99.90;;;;;;4972399;28;20059;-72
2022/03/07 03:31:21;;;;;;;2.30;2.05;;;0.80;99.90;;;;;;4955437;28;20046;-72
2022/03/07 03:33:49;;;;;;;1.85;1.52;;;0.70;99.90;;;;;;4955233;28;20050;-72
2022/03/07 03:36:17;;;;;;;2.97;2.30;;;0.70;99.90;;;;;;4972623;28;20142;-71
2022/03/07 03:38:44;;;;;;;2.40;2.10;;;0.70;99.90;;;;;;4972546;28;20057;-69
2022/03/07 03:41:11;;;;;;;2.40;1.50;;;0.60;99.90;;;;;;4971076;28;20609;-70
2022/03/07 03:43:39;;;;;;;2.33;1.20;;;0.50;99.90;;;;;;4972555;28;20058;-70
2022/03/07 03:46:06;;;;;;;2.50;1.40;;;0.50;99.90;;;;;;4971293;28;20051;-72
2022/03/07 03:48:35;;;;;;;2.35;1.30;;;0.40;99.90;;;;;;4971052;28;20057;-71
2022/03/07 03:51:02;;;;;;;1.85;0.85;;;0.30;99.90;;;;;;4971410;28;20059;-71
2022/03/07 03:53:30;;;;;;;2.45;1.83;;;0.30;99.90;;;;;;4970455;28;20046;-71
2022/03/07 03:55:57;;;;;;;1.10;1.00;;;0.20;99.90;;;;;;4972351;28;20066;-71
2022/03/07 03:58:24;;;;;;;1.23;1.10;;;0.20;99.90;;;;;;4971013;28;20057;-70
2022/03/07 04:00:52;;;;;;;1.13;1.02;;;0.20;99.90;;;;;;4954172;28;20049;-71
2022/03/07 04:03:20;;;;;;;1.77;1.02;;;0.20;99.90;;;;;;4972088;28;20047;-71
2022/03/07 04:05:48;;;;;;;1.70;1.10;;;0.10;99.90;;;;;;4955104;28;20054;-70
2022/03/07 04:08:15;;;;;;;2.20;1.05;;;0.00;99.90;;;;;;4970885;28;20533;-70
2022/03/07 04:10:52;;;;;;;1.33;1.02;;;0.00;99.90;;;;;;4976985;28;20050;-70
2022/03/07 04:13:19;;;;;;;2.08;1.10;;;0.00;99.90;;;;;;4990346;28;20047;-71
2022/03/07 04:15:48;;;;;;;1.88;0.90;;;-0.10;99.90;;;;;;4991192;28;20058;-71
2022/03/07 04:18:15;;;;;;;3.08;1.23;;;-0.20;99.90;;;;;;4974927;28;20061;-71
2022/03/07 04:20:44;;;;;;;1.00;0.90;;;-0.20;99.90;;;;;;4954602;28;20058;-72
2022/03/07 04:23:12;;;;;;;1.95;1.27;;;-0.30;99.90;;;;;;4954407;28;20081;-70
2022/03/07 04:25:40;;;;;;;1.38;1.25;;;-0.30;99.90;;;;;;4971634;28;20050;-70
2022/03/07 04:28:07;;;;;;;1.42;1.25;;;-0.30;99.90;;;;;;4954107;28;20077;-70
2022/03/07 04:30:34;;;;;;;1.92;1.10;;;-0.30;99.90;;;;;;4972201;28;20093;-70
2022/03/07 04:33:02;;;;;;;5.18;1.30;;;-0.20;99.90;;;;;;4972161;28;20047;-70
2022/03/07 04:35:29;;;;;;;2.78;1.33;;;-0.20;99.90;;;;;;4973293;28;20059;-70
2022/03/07 04:37:56;;;;;;;3.60;1.20;;;-0.30;99.90;;;;;;4991463;28;20121;-70
2022/03/07 04:40:25;;;;;;;1.30;1.15;;;-0.30;99.90;;;;;;4973927;28;20057;-72
2022/03/07 04:42:55;;;;;;;2.13;1.88;;;-0.30;99.90;;;;;;4977943;28;20399;-71
2022/03/07 04:45:23;;;;;;;2.72;1.65;;;-0.30;99.90;;;;;;4959253;28;20101;-71
2022/03/07 04:47:51;;;;;;;1.30;1.20;;;-0.40;99.90;;;;;;4977461;28;20061;-71
2022/03/07 04:50:18;;;;;;;2.70;1.52;;;-0.40;99.90;;;;;;4987896;28;20081;-71
2022/03/07 04:52:46;;;;;;;2.05;1.67;;;-0.50;99.90;;;;;;4971649;28;20051;-71
2022/03/07 04:55:14;;;;;;;1.70;1.58;;;-0.50;99.90;;;;;;4978728;28;20057;-71
2022/03/07 04:57:44;;;;;;;4.53;1.48;;;-0.50;99.90;;;;;;4973708;28;20427;-71
2022/03/07 05:00:13;;;;;;;1.50;1.40;;;-0.60;99.90;;;;;;4990935;28;20108;-71
2022/03/07 05:02:41;;;;;;;2.33;1.38;;;-0.60;99.90;;;;;;4990357;28;20241;-71
2022/03/07 05:05:09;;;;;;;1.83;1.23;;;-0.70;99.90;;;;;;4975661;28;20065;-71
2022/03/07 05:07:36;;;;;;;1.45;1.35;;;-0.70;99.90;;;;;;4975340;28;20190;-71
2022/03/07 05:10:05;;;;;;;1.98;1.77;;;-0.70;99.90;;;;;;4974209;28;20065;-70
2022/03/07 05:12:33;;;;;;;1.80;1.60;;;-0.70;99.90;;;;;;4974686;28;20050;-70
2022/03/07 05:15:02;;;;;;;1.88;1.55;;;-0.70;99.90;;;;;;4975177;28;20055;-71
2022/03/07 05:17:30;;;;;;;4.47;1.45;;;-0.70;99.90;;;;;;4973829;28;20138;-70
2022/03/07 05:19:58;;;;;;;3.72;1.60;;;-0.70;99.90;;;;;;4975118;28;20059;-71
2022/03/07 05:22:25;;;;;;;3.92;2.35;;;-0.70;99.90;;;;;;4975203;28;20419;-72
2022/03/07 05:24:52;;;;;;;3.55;1.30;;;-0.70;99.90;;;;;;4975006;28;20054;-71
2022/03/07 05:27:20;;;;;;;2.35;1.80;;;-0.70;99.90;;;;;;4973960;28;20443;-71
2022/03/07 05:29:48;;;;;;;3.60;1.52;;;-0.70;99.90;;;;;;4973845;28;20053;-71
2022/03/07 05:32:17;;;;;;;2.78;1.35;;;-0.80;99.90;;;;;;4974995;28;20055;-71
2022/03/07 05:34:44;;;;;;;4.50;1.90;;;-0.80;99.90;;;;;;4957516;28;20066;-71
2022/03/07 05:37:12;;;;;;;1.70;1.40;;;-0.80;99.90;;;;;;4978830;28;20065;-71
2022/03/07 05:39:39;;;;;;;2.58;1.35;;;-0.80;99.90;;;;;;4963775;28;20050;-70
2022/03/07 05:42:07;;;;;;;2.88;1.50;;;-0.80;99.90;;;;;;4957128;28;20043;-71
2022/03/07 05:44:35;;;;;;;2.33;1.73;;;-0.80;99.90;;;;;;4957187;28;20046;-71
2022/03/07 05:47:07;;;;;;;4.53;1.42;;;-0.80;99.90;;;;;;4974709;28;20050;-71
2022/03/07 05:49:41;;;;;;;3.10;1.67;;;-0.80;99.90;;;;;;4973733;28;20055;-71
2022/03/07 05:52:08;;;;;;;2.05;1.52;;;-0.80;99.90;;;;;;4974888;28;20051;-70
2022/03/07 05:54:36;;;;;;;10.05;2.03;;;-0.90;99.90;;;;;;4976506;28;20058;-70
2022/03/07 05:57:04;;;;;;;7.75;2.72;;;-0.90;99.90;;;;;;4959829;28;20062;-70
2022/03/07 05:59:32;;;;;;;6.35;2.28;;;-1.00;99.90;;;;;;4965274;28;20079;-71
2022/03/07 06:01:59;;;;;;;2.78;1.90;;;-1.00;99.90;;;;;;4974458;28;20463;-70
2022/03/07 06:04:28;;;;;;;2.10;1.73;;;-1.00;99.90;;;;;;4941432;28;20055;-77
2022/03/07 06:06:57;;;;;;;2.50;1.92;;;-1.00;99.90;;;;;;4940670;28;20538;-76
2022/03/07 06:09:25;;;;;;;3.28;2.35;;;-1.00;99.90;;;;;;4976550;28;20487;-76
2022/03/07 06:11:53;;;;;;;3.72;1.73;;;-1.00;99.90;;;;;;4975632;28;20042;-76
2022/03/07 06:14:21;;;;;;;6.50;1.52;;;-1.10;99.90;;;;;;4975628;28;20046;-76
2022/03/07 06:16:48;;;;;;;2.70;1.50;;;-1.20;99.90;;;;;;4988401;28;20051;-71
2022/03/07 06:19:19;;;;;;;4.45;1.58;;;-1.40;99.90;;;;;;4956343;28;20058;-72
2022/03/07 06:21:47;;;;;;;3.40;1.70;;;-1.40;99.90;;;;;;4974377;28;20516;-71
2022/03/07 06:24:16;;;;;;;4.40;1.30;;;-1.50;99.90;;;;;;4973983;28;20518;-71
2022/03/07 06:26:43;;;;;;;5.28;1.50;;;-1.50;99.90;;;;;;4973970;28;20047;-71
2022/03/07 06:29:10;;;;;;;2.38;2.17;;;-1.50;99.90;;;;;;4964868;28;20483;-71
2022/03/07 06:31:38;;;;;;;4.57;1.90;;;-1.60;99.90;;;;;;4958396;28;20499;-71
2022/03/07 06:34:05;;;;;;;8.55;2.13;;;-1.60;99.90;;;;;;4972498;28;20600;-69
2022/03/07 06:36:33;;;;;;;3.90;1.83;;;-1.60;99.90;;;;;;4955718;28;20055;-74
2022/03/07 06:39:00;;;;;;;4.32;1.80;;;-1.60;99.90;;;;;;4973109;28;20053;-75
2022/03/07 06:41:29;;;;;;;5.68;1.63;;;-1.70;99.90;;;;;;4979305;28;20050;-75
2022/03/07 06:43:56;;;;;;;3.20;1.30;;;-1.70;99.90;;;;;;4983075;28;20505;-75
2022/03/07 06:46:24;;;;;;;2.13;1.30;;;-1.70;99.90;;;;;;4957067;28;20057;-75
2022/03/07 06:48:53;;;;;;;8.95;2.20;;;-1.70;99.90;;;;;;4972405;28;20475;-75
2022/03/07 06:51:20;;;;;;;3.25;1.42;;;-1.70;99.90;;;;;;4972173;28;20966;-75
2022/03/07 06:53:48;;;;;;;2.88;1.33;;;-1.80;99.90;;;;;;4973116;28;20054;-75
2022/03/07 06:56:17;;;;;;;4.97;1.55;;;-1.80;99.90;;;;;;4973388;28;20051;-76
2022/03/07 06:58:46;;;;;;;2.80;1.52;;;-1.80;99.90;;;;;;4972153;28;20150;-76
2022/03/07 07:01:13;;;;;;;5.90;1.77;;;-1.80;99.90;;;;;;4984171;28;20423;-70
2022/03/07 07:03:41;;;;;;;8.30;2.40;;;-1.80;99.90;;;;;;4984104;28;20096;-70
2022/03/07 07:06:08;;;;;;;5.28;1.83;;;-1.90;99.90;;;;;;4958111;28;20082;-69
2022/03/07 07:08:36;;;;;;;3.10;1.35;;;-1.90;99.90;;;;;;4971644;28;20050;-72
2022/03/07 07:11:03;;;;;;;4.47;1.73;;;-1.80;99.90;;;;;;4971781;28;20051;-72
2022/03/07 07:13:31;;;;;;;2.40;1.50;;;-1.80;99.90;;;;;;4955171;28;20089;-70
2022/03/07 07:16:02;;;;;;;1.70;1.55;;;-1.70;99.90;;;;;;4974731;28;20039;-74
2022/03/07 07:18:42;;;;;;;6.43;2.38;;;-1.70;99.90;;;;;;4979880;28;20514;-70
2022/03/07 07:21:13;;;;;;;22.00;2.85;;;-1.60;99.90;;;;;;4965505;28;20125;-75
2022/03/07 07:23:49;;;;;;;1.90;1.17;;;-1.60;99.90;;;;;;4972183;28;20054;-75
2022/03/07 07:26:22;;;;;;;7.55;1.60;;;-1.70;99.90;;;;;;4976675;28;20499;-76
2022/03/07 07:28:50;;;;;;;3.78;1.90;;;-1.70;99.90;;;;;;4977222;28;20055;-76
2022/03/07 07:31:25;;;;;;;3.65;1.30;;;-1.80;99.90;;;;;;4983689;28;20094;-76
2022/03/07 07:33:55;;;;;;;2.65;1.50;;;-1.80;99.90;;;;;;4971563;28;20054;-76
2022/03/07 07:36:22;;;;;;;3.85;2.28;;;-1.80;99.90;;;;;;4954377;28;20129;-75
2022/03/07 07:38:50;;;;;;;9.13;1.48;;;-1.80;99.90;;;;;;4972246;28;20597;-71
2022/03/07 07:41:17;;;;;;;2.60;2.08;;;-1.70;99.90;;;;;;4975570;28;20038;-70
2022/03/07 07:43:44;;;;;;;1.30;1.20;;;-1.70;99.90;;;;;;4987561;28;20054;-70
2022/03/07 07:46:11;;;;;;;2.72;1.30;;;-1.70;99.90;;;;;;4979192;28;20129;-70
2022/03/07 07:48:40;;;;;;;8.80;2.55;;;-1.70;99.90;;;;;;4980618;28;20054;-70
2022/03/07 07:51:08;;;;;;;7.75;1.63;;;-1.70;99.90;;;;;;4985195;28;20180;-74
2022/03/07 07:53:35;;;;;;;2.17;1.52;;;-1.60;99.90;;;;;;4984548;28;20486;-75
2022/03/07 07:56:03;;;;;;;10.45;2.20;;;-1.60;99.90;;;;;;4971635;28;20258;-71
2022/03/07 07:58:31;;;;;;;3.30;1.40;;;-1.60;99.90;;;;;;4978190;28;20110;-71
2022/03/07 08:00:58;;;;;;;12.35;3.25;;;-1.50;99.90;;;;;;4979652;28;20046;-72
2022/03/07 08:03:25;;;;;;;1.88;1.50;;;-1.50;99.90;;;;;;4976394;28;20596;-71
2022/03/07 08:05:55;;;;;;;2.95;1.70;;;-1.40;99.90;;;;;;4981879;28;20090;-70
2022/03/07 08:08:22;;;;;;;7.35;1.65;;;-1.30;99.90;;;;;;4991486;28;20073;-70
2022/03/07 08:10:49;;;;;;;9.23;2.22;;;-1.30;99.90;;;;;;4977792;28;20054;-70
2022/03/07 08:13:17;;;;;;;9.30;3.17;;;-1.20;99.90;;;;;;4980157;28;20038;-71
2022/03/07 08:15:44;;;;;;;7.20;1.83;;;-1.10;99.90;;;;;;4975629;28;20050;-69
2022/03/07 08:18:11;;;;;;;5.03;1.80;;;-1.20;99.90;;;;;;4972487;28;20145;-71
2022/03/07 08:20:39;;;;;;;10.63;2.10;;;-1.20;99.90;;;;;;4979392;28;20058;-76
2022/03/07 08:23:08;;;;;;;3.90;2.08;;;-1.20;99.90;;;;;;4966384;28;20418;-76
2022/03/07 08:25:35;;;;;;;2.78;1.77;;;-1.20;99.90;;;;;;4970872;28;20046;-75
2022/03/07 08:28:04;;;;;;;7.32;2.60;;;-1.20;99.90;;;;;;4979231;28;20509;-75
2022/03/07 08:30:33;;;;;;;7.45;2.40;;;-1.20;99.90;;;;;;4972389;28;20055;-76
2022/03/07 08:33:01;;;;;;;4.10;2.13;;;-1.20;99.90;;;;;;4985010;28;20078;-76
2022/03/07 08:35:29;;;;;;;3.88;2.13;;;-1.20;99.90;;;;;;4964774;28;20042;-75
2022/03/07 08:37:57;;;;;;;6.88;3.13;;;-1.30;99.90;;;;;;4981348;28;20561;-75
2022/03/07 08:40:26;;;;;;;7.88;2.15;;;-1.30;99.90;;;;;;4980038;28;20077;-74
2022/03/07 08:42:54;;;;;;;7.38;2.10;;;-1.20;99.90;;;;;;4982941;28;20047;-75
2022/03/07 08:45:23;;;;;;;11.40;2.70;;;-1.20;99.90;;;;;;4982393;28;20053;-76
2022/03/07 08:47:50;;;;;;;5.32;2.00;;;-1.10;99.90;;;;;;4990761;28;20122;-75
2022/03/07 08:50:19;;;;;;;3.22;2.20;;;-1.00;99.90;;;;;;4979042;28;20065;-74
2022/03/07 08:52:47;;;;;;;9.68;2.97;;;-1.00;99.90;;;;;;4981773;28;20571;-75
2022/03/07 08:55:15;;;;;;;6.60;2.63;;;-0.90;99.90;;;;;;4975670;28;20053;-76
2022/03/07 08:57:45;;;;;;;7.45;2.10;;;-0.90;99.90;;;;;;4975300;28;20427;-76
2022/03/07 09:00:15;;;;;;;5.97;2.60;;;-0.90;99.90;;;;;;4983496;28;20488;-76
2022/03/07 09:02:42;;;;;;;4.95;2.72;;;-0.80;99.90;;;;;;4978052;28;20054;-74
2022/03/07 09:05:10;;;;;;;3.78;2.22;;;-0.80;99.90;;;;;;4993015;28;20046;-75
2022/03/07 09:07:38;;;;;;;4.50;2.72;;;-0.80;99.90;;;;;;4977631;28;20050;-75
2022/03/07 09:10:06;;;;;;;6.78;2.75;;;-0.70;99.90;;;;;;4985964;28;20478;-75
2022/03/07 09:12:34;;;;;;;5.13;2.38;;;-0.80;99.90;;;;;;4994777;28;20514;-76
2022/03/07 09:15:06;;;;;;;5.72;2.22;;;-0.80;99.90;;;;;;4974923;28;20110;-75
2022/03/07 09:17:34;;;;;;;8.68;2.00;;;-0.90;99.90;;;;;;4958012;28;20133;-69
2022/03/07 09:20:01;;;;;;;9.75;2.17;;;-0.90;99.90;;;;;;4972412;28;20138;-69
2022/03/07 09:22:29;;;;;;;5.30;2.60;;;-1.00;99.90;;;;;;4957773;28;20149;-70
2022/03/07 09:24:57;;;;;;;3.70;1.90;;;-1.00;99.90;;;;;;4974940;28;20118;-69
2022/03/07 09:27:24;;;;;;;3.03;1.80;;;-1.00;99.90;;;;;;4977578;28;20042;-71
2022/03/07 09:29:52;;;;;;;12.18;1.88;;;-1.00;99.90;;;;;;4975960;28;20133;-72
2022/03/07 09:32:21;;;;;;;4.03;2.00;;;-0.90;99.90;;;;;;4989684;28;20050;-70
2022/03/07 09:34:48;;;;;;;2.67;1.67;;;-0.80;99.90;;;;;;4962182;28;20055;-70
2022/03/07 09:37:16;;;;;;;4.57;1.70;;;-0.60;99.90;;;;;;4959051;28;20487;-75
2022/03/07 09:39:44;;;;;;;4.05;2.65;;;-0.50;99.90;;;;;;4970002;28;20047;-72
2022/03/07 09:42:11;;;;;;;3.83;1.60;;;-0.40;99.90;;;;;;4961758;28;20051;-75
2022/03/07 09:44:38;;;;;;;19.60;2.08;;;-0.40;99.90;;;;;;4979010;28;20454;-76
2022/03/07 09:47:06;;;;;;;15.80;2.42;;;-0.30;99.90;;;;;;4982232;28;20051;-75
2022/03/07 09:49:35;;;;;;;6.07;2.03;;;-0.30;99.90;;;;;;4987563;28;20050;-75
2022/03/07 09:52:04;;;;;;;11.90;3.60;;;-0.20;99.90;;;;;;4990930;28;20050;-74
2022/03/07 09:54:32;;;;;;;4.03;1.73;;;-0.20;99.90;;;;;;4985608;28;20057;-76
2022/03/07 09:57:00;;;;;;;6.10;2.00;;;-0.20;99.90;;;;;;4976050;28;20512;-78
2022/03/07 09:59:28;;;;;;;3.63;1.80;;;-0.20;99.90;;;;;;4979161;28;20050;-77
2022/03/07 10:02:00;;;;;;;8.10;2.15;;;-0.20;99.90;;;;;;4978756;28;20051;-77
2022/03/07 10:04:30;;;;;;;9.67;1.90;;;-0.30;99.90;;;;;;4974709;28;20106;-76
2022/03/07 10:07:03;;;;;;;6.43;2.20;;;-0.40;99.90;;;;;;4968433;28;20357;-76
2022/03/07 10:09:30;;;;;;;;;;;-0.40;99.90;;;;;;4981139;28;20057;-75
2022/03/07 10:12:02;;;;;;;7.32;2.05;;;-0.40;99.90;;;;;;4990659;28;20398;-79
2022/03/07 10:14:41;;;;;;;4.70;1.90;;;-0.40;99.90;;;;;;4962751;28;20459;-77
2022/03/07 10:17:21;;;;;;;11.55;2.70;;;-0.40;99.90;;;;;;4974303;28;20055;-70
2022/03/07 10:19:50;;;;;;;5.57;1.98;;;-0.30;99.90;;;;;;4972759;28;20054;-70
2022/03/07 10:22:23;;;;;;;6.60;2.15;;;-0.20;99.90;;;;;;4960880;28;20045;-72
2022/03/07 10:25:00;;;;;;;6.95;1.90;;;-0.10;99.90;;;;;;4957333;28;20087;-71
2022/03/07 10:27:30;;;;;;;6.38;2.15;;;0.00;99.90;;;;;;4982386;28;20101;-73
2022/03/07 10:29:57;;;;;;;5.95;2.63;;;0.10;99.90;;;;;;4955638;28;20065;-76
2022/03/07 10:32:25;;;;;;;9.55;2.60;;;0.10;99.90;;;;;;4980597;28;20057;-78
2022/03/07 10:34:53;;;;;;;10.23;2.85;;;0.00;99.90;;;;;;4979676;28;20055;-79
2022/03/07 10:37:33;;;;;;;17.35;3.25;;;-0.10;99.90;;;;;;4969306;28;20051;-75
2022/03/07 10:40:00;;;;;;;8.77;2.25;;;-0.10;99.90;;;;;;4980914;28;20490;-76
2022/03/07 10:42:28;;;;;;;4.40;2.17;;;-0.20;99.90;;;;;;4971512;28;20050;-71
2022/03/07 10:45:05;;;;;;;7.07;2.28;;;-0.20;99.90;;;;;;4975255;28;20051;-73
2022/03/07 10:47:33;;;;;;;2.75;1.63;;;-0.30;99.90;;;;;;4973679;28;20141;-74
2022/03/07 10:50:03;;;;;;;6.47;2.08;;;-0.20;99.90;;;;;;4972963;28;20105;-73
2022/03/07 10:52:41;;;;;;;3.30;2.13;;;-0.30;99.90;;;;;;4967594;28;20052;-70
2022/03/07 10:55:12;;;;;;;3.75;1.80;;;-0.30;99.90;;;;;;4983692;28;20062;-77
2022/03/07 10:57:42;;;;;;;3.33;2.13;;;-0.40;99.90;;;;;;4978532;28;20050;-76
2022/03/07 11:00:12;;;;;;;3.58;2.75;;;-0.30;99.90;;;;;;4973334;28;20471;-76
2022/03/07 11:02:42;;;;;;;6.00;2.45;;;-0.30;99.90;;;;;;4981604;28;20534;-76
2022/03/07 11:05:12;;;;;;;5.72;2.67;;;-0.20;99.90;;;;;;4972528;28;20058;-74
2022/03/07 11:07:43;;;;;;;3.53;2.20;;;-0.10;99.90;;;;;;4972154;28;20055;-75
2022/03/07 11:10:13;;;;;;;6.65;2.67;;;0.00;99.90;;;;;;4948784;28;20057;-70
2022/03/07 11:12:43;;;;;;;4.53;2.90;;;0.00;99.90;;;;;;4973300;28;20042;-75
2022/03/07 11:15:14;;;;;;;7.32;3.80;;;0.00;99.90;;;;;;4983614;28;20054;-75
2022/03/07 11:17:45;;;;;;;8.55;2.40;;;-0.10;99.90;;;;;;4980102;28;20062;-75
2022/03/07 11:20:15;;;;;;;9.00;2.17;;;-0.10;99.90;;;;;;4978716;28;20434;-75
2022/03/07 11:22:45;;;;;;;3.42;1.60;;;-0.30;99.90;;;;;;4981576;28;20055;-74
2022/03/07 11:25:16;;;;;;;1.67;1.20;;;-0.40;99.90;;;;;;4982613;28;20076;-76
2022/03/07 11:27:44;;;;;;;4.50;1.55;;;-0.40;99.90;;;;;;4981544;28;20507;-74
2022/03/07 11:30:20;;;;;;;4.55;1.40;;;-0.40;99.90;;;;;;4975476;28;20059;-75
2022/03/07 11:32:51;;;;;;;2.55;1.23;;;-0.20;99.90;;;;;;4962391;28;20050;-76
2022/03/07 11:35:19;;;;;;;3.30;1.73;;;-0.10;99.90;;;;;;4971727;28;20050;-75
2022/03/07 11:37:48;;;;;;;6.72;1.55;;;-0.10;99.90;;;;;;4981972;28;20054;-76
2022/03/07 11:40:23;;;;;;;7.63;1.02;;;-0.10;99.90;;;;;;4975146;28;20053;-72
2022/03/07 11:42:51;;;;;;;5.97;1.85;;;-0.10;99.90;;;;;;4985667;28;20166;-69
2022/03/07 11:45:22;;;;;;;8.23;1.48;;;-0.10;99.90;;;;;;4976050;28;20055;-70
2022/03/07 11:47:51;;;;;;;5.38;1.52;;;-0.10;99.90;;;;;;4973818;28;20074;-71
2022/03/07 11:50:22;;;;;;;6.45;1.40;;;-0.10;99.90;;;;;;4972102;28;20047;-74
2022/03/07 11:53:04;;;;;;;6.15;1.35;;;-0.20;99.90;;;;;;4971251;28;20051;-70
2022/03/07 11:55:31;;;;;;;6.45;1.70;;;-0.20;99.90;;;;;;4967647;28;20055;-71
2022/03/07 11:58:05;;;;;;;7.22;1.85;;;-0.20;99.90;;;;;;4966717;28;20550;-70
2022/03/07 12:00:35;;;;;;;3.83;1.20;;;-0.30;99.90;;;;;;4968869;28;20146;-71
2022/03/07 12:03:15;;;;;;;5.68;1.50;;;-0.30;99.90;;;;;;4949750;28;20483;-72
2022/03/07 12:05:44;;;;;;;5.50;1.33;;;-0.20;99.90;;;;;;4967074;28;20047;-70
2022/03/07 12:08:15;;;;;;;3.72;1.45;;;-0.30;99.90;;;;;;4966760;28;20066;-71
2022/03/07 12:10:54;;;;;;;5.32;2.22;;;-0.40;99.90;;;;;;4973681;28;20499;-72
2022/03/07 12:13:22;;;;;;;5.10;1.40;;;-0.40;99.90;;;;;;4966168;28;20057;-72
2022/03/07 12:15:52;;;;;;;7.70;2.85;;;-0.50;99.90;;;;;;4948663;28;20057;-72
2022/03/07 12:18:20;;;;;;;2.72;1.55;;;-0.50;99.90;;;;;;4967800;28;20057;-71
2022/03/07 12:20:50;;;;;;;3.40;1.63;;;-0.60;99.90;;;;;;4950397;28;20046;-72
2022/03/07 12:23:21;;;;;;;4.13;1.83;;;-0.60;99.90;;;;;;4967397;28;20523;-73
2022/03/07 12:25:57;;;;;;;6.38;1.80;;;-0.60;99.90;;;;;;4980984;28;20475;-72
2022/03/07 12:28:32;;;;;;;4.85;1.52;;;-0.60;99.90;;;;;;4969634;28;20523;-73
2022/03/07 12:31:01;;;;;;;2.50;1.83;;;-0.60;99.90;;;;;;4981128;28;20514;-69
2022/03/07 12:33:29;;;;;;;5.88;1.60;;;-0.50;99.90;;;;;;4964084;28;20051;-71
2022/03/07 12:36:02;;;;;;;3.33;1.60;;;-0.40;99.90;;;;;;4968455;28;20054;-70
2022/03/07 12:38:46;;;;;;;6.85;1.55;;;-0.40;99.90;;;;;;4967444;28;20144;-75
2022/03/07 12:41:14;;;;;;;2.15;1.30;;;-0.40;99.90;;;;;;4958693;28;20043;-70
2022/03/07 12:43:43;;;;;;;4.07;1.85;;;-0.40;99.90;;;;;;4970625;28;20585;-74
2022/03/07 12:46:13;;;;;;;3.33;1.40;;;-0.30;99.90;;;;;;4968712;28;20054;-73
2022/03/07 12:48:45;;;;;;;10.75;1.40;;;-0.30;99.90;;;;;;4971747;28;20054;-71
2022/03/07 12:51:15;;;;;;;8.02;2.40;;;-0.30;99.90;;;;;;4961032;28;20123;-70
2022/03/07 12:53:53;;;;;;;6.07;1.92;;;-0.30;99.90;;;;;;4984663;28;20082;-75
2022/03/07 12:56:22;;;;;;;6.53;1.40;;;-0.30;99.90;;;;;;4965726;28;20153;-74
2022/03/07 12:58:54;;;;;;;7.63;1.08;;;-0.20;99.90;;;;;;4950609;28;20434;-73